TimeMST,TemperatureF,Dew PointF,Humidity,Sea Level PressureIn,VisibilityMPH,Wind Direction,Wind SpeedMPH,Gust SpeedMPH,PrecipitationIn,Events,Conditions,WindDirDegrees,DateUTC
12:22 AM,16.0,10.0,77,30.23,10.0,NE,3.5,-,N/A,,Mostly Cloudy,50,2013-12-29 07:22:00
12:33 AM,16.0,10.9,81,30.22,10.0,NE,5.8,-,N/A,,Mostly Cloudy,50,2013-12-29 07:33:00
12:53 AM,12.0,8.1,84,30.38,10.0,NE,6.9,-,N/A,,Mostly Cloudy,50,2013-12-29 07:53:00
1:18 AM,10.9,7.0,84,30.23,10.0,Calm,Calm,-,N/A,,Overcast,0,2013-12-29 08:18:00
1:41 AM,12.9,8.1,81,30.24,10.0,Calm,Calm,-,N/A,,Overcast,0,2013-12-29 08:41:00
1:53 AM,12.9,8.1,81,30.39,10.0,North,4.6,-,N/A,,Overcast,350,2013-12-29 08:53:00
2:29 AM,12.9,9.0,84,30.24,10.0,Calm,Calm,-,N/A,,Overcast,0,2013-12-29 09:29:00
2:53 AM,16.0,10.9,81,30.40,10.0,SW,4.6,-,N/A,,Overcast,220,2013-12-29 09:53:00
3:31 AM,17.1,12.0,81,30.24,10.0,Calm,Calm,-,N/A,,Overcast,0,2013-12-29 10:31:00
3:40 AM,17.1,12.0,81,30.24,10.0,Calm,Calm,-,N/A,,Overcast,0,2013-12-29 10:40:00
3:48 AM,15.8,12.2,86,30.23,10.0,Calm,Calm,-,N/A,,Overcast,0,2013-12-29 10:48:00
3:53 AM,14.0,9.0,80,30.40,10.0,East,3.5,-,N/A,,Overcast,90,2013-12-29 10:53:00
4:01 AM,12.0,9.0,88,30.23,10.0,Calm,Calm,-,N/A,,Overcast,0,2013-12-29 11:01:00
4:53 AM,16.0,12.0,84,30.39,10.0,Calm,Calm,-,N/A,,Overcast,0,2013-12-29 11:53:00
5:03 AM,16.0,10.9,81,30.23,10.0,Calm,Calm,-,N/A,,Overcast,0,2013-12-29 12:03:00
5:53 AM,16.0,12.0,84,30.38,10.0,Calm,Calm,-,N/A,,Overcast,0,2013-12-29 12:53:00
6:04 AM,17.1,14.0,88,30.21,1.8,Calm,Calm,-,N/A,,Overcast,0,2013-12-29 13:04:00
6:16 AM,17.1,15.1,92,30.20,0.8,Variable,3.5,-,N/A,,Mist,0,2013-12-29 13:16:00
6:23 AM,15.1,10.9,84,30.20,2.0,Calm,Calm,-,N/A,,Overcast,0,2013-12-29 13:23:00
6:31 AM,14.0,10.0,84,30.20,8.0,East,3.5,-,N/A,,Overcast,90,2013-12-29 13:31:00
6:48 AM,12.2,10.4,92,30.20,9.0,East,3.5,-,N/A,,Overcast,90,2013-12-29 13:48:00
6:53 AM,12.0,9.0,88,30.37,9.0,Calm,Calm,-,N/A,,Overcast,0,2013-12-29 13:53:00
7:18 AM,12.9,10.0,88,30.20,1.8,Calm,Calm,-,N/A,,Overcast,0,2013-12-29 14:18:00
7:23 AM,12.9,10.9,92,30.20,0.8,Calm,Calm,-,N/A,,Mist,0,2013-12-29 14:23:00
7:37 AM,15.1,12.0,88,30.20,0.2,Calm,Calm,-,N/A,Fog,Light Freezing Fog,0,2013-12-29 14:37:00
7:53 AM,15.1,14.0,95,30.37,0.2,Calm,Calm,-,N/A,Fog,Light Freezing Fog,0,2013-12-29 14:53:00
8:53 AM,15.1,12.9,91,30.35,0.2,Calm,Calm,-,N/A,Fog,Light Freezing Fog,0,2013-12-29 15:53:00
9:53 AM,16.0,12.9,88,30.33,0.2,Variable,3.5,-,N/A,Fog,Light Freezing Fog,0,2013-12-29 16:53:00
10:46 AM,16.0,12.0,84,30.14,0.2,East,3.5,-,N/A,Fog,Light Freezing Fog,100,2013-12-29 17:46:00
10:53 AM,16.0,12.9,88,30.32,0.2,Variable,4.6,-,N/A,Fog,Light Freezing Fog,0,2013-12-29 17:53:00
11:39 AM,15.1,12.9,91,30.11,0.5,Calm,Calm,-,N/A,Fog,Light Freezing Fog,0,2013-12-29 18:39:00
11:46 AM,16.0,12.9,88,30.09,0.2,Calm,Calm,-,N/A,Fog,Light Freezing Fog,0,2013-12-29 18:46:00
11:53 AM,16.0,12.0,84,30.28,0.2,East,4.6,-,N/A,Fog,Light Freezing Fog,100,2013-12-29 18:53:00
12:13 PM,16.0,12.9,88,30.07,0.2,ESE,4.6,-,N/A,Fog,Light Freezing Fog,120,2013-12-29 19:13:00
12:37 PM,15.1,12.0,88,30.06,0.2,Calm,Calm,-,N/A,Fog,Light Freezing Fog,0,2013-12-29 19:37:00
12:48 PM,15.8,12.2,86,30.05,0.5,SW,3.5,-,N/A,Fog,Light Freezing Fog,230,2013-12-29 19:48:00
12:53 PM,15.1,12.0,88,30.25,0.5,Calm,Calm,-,N/A,Fog,Light Freezing Fog,0,2013-12-29 19:53:00
1:15 PM,16.0,12.0,84,30.04,1.0,Calm,Calm,-,N/A,,Overcast,0,2013-12-29 20:15:00
1:26 PM,15.1,12.9,91,30.02,0.8,Calm,Calm,-,N/A,,Overcast,0,2013-12-29 20:26:00
1:51 PM,15.8,12.2,86,30.00,0.2,Calm,Calm,-,N/A,Fog,Light Freezing Fog,0,2013-12-29 20:51:00
1:53 PM,16.0,12.9,88,30.20,0.2,Variable,3.5,-,N/A,Fog,Light Freezing Fog,0,2013-12-29 20:53:00
2:08 PM,17.1,12.9,84,30.00,0.5,Calm,Calm,-,N/A,Fog,Light Freezing Fog,0,2013-12-29 21:08:00
2:19 PM,16.0,12.0,84,29.99,1.8,Calm,Calm,-,N/A,,Overcast,0,2013-12-29 21:19:00
2:53 PM,15.1,12.0,88,30.17,1.5,ESE,3.5,-,N/A,,Overcast,110,2013-12-29 21:53:00
3:02 PM,16.0,12.0,84,29.98,2.0,Variable,3.5,-,N/A,,Overcast,0,2013-12-29 22:02:00
3:14 PM,15.1,12.0,88,29.98,3.0,SE,3.5,-,N/A,,Overcast,140,2013-12-29 22:14:00
3:33 PM,15.1,12.0,88,29.98,4.0,SE,3.5,-,N/A,,Overcast,140,2013-12-29 22:33:00
3:53 PM,15.1,12.0,88,30.17,6.0,SSE,3.5,-,N/A,,Overcast,160,2013-12-29 22:53:00
4:26 PM,14.0,10.9,88,29.95,10.0,South,3.5,-,N/A,,Scattered Clouds,180,2013-12-29 23:26:00
4:53 PM,14.0,10.9,88,30.12,10.0,SSW,6.9,-,N/A,,Clear,210,2013-12-29 23:53:00
5:53 PM,14.0,10.9,88,30.09,10.0,SW,10.4,-,N/A,,Clear,220,2013-12-30 00:53:00
6:53 PM,12.9,8.1,81,30.12,10.0,North,-9999.0,-,N/A,,Clear,0,2013-12-30 01:53:00
7:53 PM,10.9,7.0,84,30.14,10.0,North,4.6,-,N/A,,Clear,10,2013-12-30 02:53:00
8:53 PM,12.9,9.0,84,30.16,10.0,East,4.6,-,N/A,,Clear,90,2013-12-30 03:53:00
9:53 PM,10.0,7.0,87,30.19,10.0,Calm,Calm,-,N/A,,Clear,0,2013-12-30 04:53:00
10:53 PM,18.0,12.0,78,30.19,10.0,SW,5.8,-,N/A,,Clear,230,2013-12-30 05:53:00
11:53 PM,12.0,7.0,80,30.22,10.0,WNW,3.5,-,N/A,,Clear,290,2013-12-30 06:53:00